sensor_id;sensor_type;location;lat;lon;timestamp;pressure;altitude;pressure_sealevel;temperature;humidity
68654;BME280;55636;51.108;13.622;2023-03-22T00:00:40;100091.03;;;11.46;62.40
68654;BME280;55636;51.108;13.622;2023-03-22T00:01:42;100089.13;;;11.47;62.39
68654;BME280;55636;51.108;13.622;2023-03-22T00:02:45;100089.41;;;11.45;62.42
68654;BME280;55636;51.108;13.622;2023-03-22T00:03:48;100080.84;;;11.47;62.50
68654;BME280;55636;51.108;13.622;2023-03-22T00:04:51;100082.75;;;11.46;62.56
68654;BME280;55636;51.108;13.622;2023-03-22T00:06:01;100083.03;;;11.45;62.58
68654;BME280;55636;51.108;13.622;2023-03-22T00:07:04;100084.97;;;11.44;62.43
68654;BME280;55636;51.108;13.622;2023-03-22T00:08:07;100088.56;;;11.45;62.71
68654;BME280;55636;51.108;13.622;2023-03-22T00:09:10;100093.28;;;11.44;62.63
68654;BME280;55636;51.108;13.622;2023-03-22T00:10:14;100096.84;;;11.45;62.66
68654;BME280;55636;51.108;13.622;2023-03-22T00:11:18;100094.34;;;11.43;62.67
68654;BME280;55636;51.108;13.622;2023-03-22T00:12:21;100090.75;;;11.43;62.73
68654;BME280;55636;51.108;13.622;2023-03-22T00:13:24;100092.66;;;11.42;62.67
68654;BME280;55636;51.108;13.622;2023-03-22T00:14:26;100091.56;;;11.43;62.79
68654;BME280;55636;51.108;13.622;2023-03-22T00:15:31;100087.41;;;11.41;62.78
68654;BME280;55636;51.108;13.622;2023-03-22T00:16:34;100083.84;;;11.40;62.89
68654;BME280;55636;51.108;13.622;2023-03-22T00:17:37;100081.88;;;11.41;62.72
68654;BME280;55636;51.108;13.622;2023-03-22T00:18:41;100089.38;;;11.40;62.85
68654;BME280;55636;51.108;13.622;2023-03-22T00:19:44;100083.84;;;11.40;62.75
68654;BME280;55636;51.108;13.622;2023-03-22T00:20:53;100085.75;;;11.40;62.76
68654;BME280;55636;51.108;13.622;2023-03-22T00:21:56;100076.63;;;11.39;62.51
68654;BME280;55636;51.108;13.622;2023-03-22T00:22:59;100075.78;;;11.39;62.78
68654;BME280;55636;51.108;13.622;2023-03-22T00:24:01;100082.44;;;11.38;62.54
68654;BME280;55636;51.108;13.622;2023-03-22T00:25:04;100086.84;;;11.39;62.87
68654;BME280;55636;51.108;13.622;2023-03-22T00:26:08;100076.91;;;11.38;62.71
68654;BME280;55636;51.108;13.622;2023-03-22T00:27:13;100078.81;;;11.37;62.55
68654;BME280;55636;51.108;13.622;2023-03-22T00:28:17;100072.75;;;11.35;62.45
68654;BME280;55636;51.108;13.622;2023-03-22T00:29:19;100076.06;;;11.37;62.64
68654;BME280;55636;51.108;13.622;2023-03-22T00:30:23;100073.84;;;11.34;62.61
68654;BME280;55636;51.108;13.622;2023-03-22T00:31:26;100070.00;;;11.35;62.69
68654;BME280;55636;51.108;13.622;2023-03-22T00:32:28;100068.31;;;11.34;62.43
68654;BME280;55636;51.108;13.622;2023-03-22T00:33:31;100070.25;;;11.33;62.42
68654;BME280;55636;51.108;13.622;2023-03-22T00:34:36;100067.75;;;11.32;62.57
68654;BME280;55636;51.108;13.622;2023-03-22T00:35:39;100061.13;;;11.33;62.69
68654;BME280;55636;51.108;13.622;2023-03-22T00:36:41;100069.41;;;11.33;62.78
68654;BME280;55636;51.108;13.622;2023-03-22T00:37:43;100063.06;;;11.32;62.49
68654;BME280;55636;51.108;13.622;2023-03-22T00:38:46;100067.75;;;11.32;62.57
68654;BME280;55636;51.108;13.622;2023-03-22T00:39:49;100063.06;;;11.32;62.28
68654;BME280;55636;51.108;13.622;2023-03-22T00:40:52;100053.94;;;11.32;62.38
68654;BME280;55636;51.108;13.622;2023-03-22T00:41:54;100053.09;;;11.31;62.37
68654;BME280;55636;51.108;13.622;2023-03-22T00:42:56;100055.88;;;11.31;62.24
68654;BME280;55636;51.108;13.622;2023-03-22T00:44:02;100048.66;;;11.30;62.02
68654;BME280;55636;51.108;13.622;2023-03-22T00:45:06;100043.13;;;11.30;62.10
68654;BME280;55636;51.108;13.622;2023-03-22T00:46:10;100047.84;;;11.30;62.12
68654;BME280;55636;51.108;13.622;2023-03-22T00:47:12;100047.00;;;11.29;62.36
68654;BME280;55636;51.108;13.622;2023-03-22T00:48:15;100049.78;;;11.29;62.34
68654;BME280;55636;51.108;13.622;2023-03-22T00:49:18;100037.91;;;11.29;62.19
68654;BME280;55636;51.108;13.622;2023-03-22T00:50:20;100039.56;;;11.30;62.25
68654;BME280;55636;51.108;13.622;2023-03-22T00:51:23;100039.00;;;11.28;62.03
68654;BME280;55636;51.108;13.622;2023-03-22T00:52:25;100037.31;;;11.27;62.04
68654;BME280;55636;51.108;13.622;2023-03-22T00:53:28;100036.78;;;11.25;61.95
68654;BME280;55636;51.108;13.622;2023-03-22T00:54:33;100047.56;;;11.26;62.11
68654;BME280;55636;51.108;13.622;2023-03-22T00:55:37;100045.91;;;11.25;62.26
68654;BME280;55636;51.108;13.622;2023-03-22T00:56:39;100040.66;;;11.24;62.34
68654;BME280;55636;51.108;13.622;2023-03-22T00:57:47;100048.13;;;11.23;62.16
68654;BME280;55636;51.108;13.622;2023-03-22T00:58:52;100052.81;;;11.23;61.94
68654;BME280;55636;51.108;13.622;2023-03-22T00:59:54;100045.59;;;11.22;62.00
68654;BME280;55636;51.108;13.622;2023-03-22T01:00:57;100050.31;;;11.21;61.99
68654;BME280;55636;51.108;13.622;2023-03-22T01:02:03;100041.19;;;11.21;62.19
68654;BME280;55636;51.108;13.622;2023-03-22T01:03:06;100045.06;;;11.19;62.36
68654;BME280;55636;51.108;13.622;2023-03-22T01:04:09;100046.16;;;11.18;62.37
68654;BME280;55636;51.108;13.622;2023-03-22T01:05:16;100043.41;;;11.18;62.19
68654;BME280;55636;51.108;13.622;2023-03-22T01:06:18;100047.25;;;11.17;62.18
68654;BME280;55636;51.108;13.622;2023-03-22T01:07:21;100049.19;;;11.17;62.31
68654;BME280;55636;51.108;13.622;2023-03-22T01:08:25;100048.63;;;11.15;62.19
68654;BME280;55636;51.108;13.622;2023-03-22T01:09:33;100039.53;;;11.14;62.29
68654;BME280;55636;51.108;13.622;2023-03-22T01:10:40;100043.38;;;11.13;62.37
68654;BME280;55636;51.108;13.622;2023-03-22T01:11:43;100044.47;;;11.12;62.15
68654;BME280;55636;51.108;13.622;2023-03-22T01:12:45;100044.47;;;11.12;62.27
68654;BME280;55636;51.108;13.622;2023-03-22T01:13:48;100048.34;;;11.11;62.21
68654;BME280;55636;51.108;13.622;2023-03-22T01:14:50;100039.22;;;11.11;62.22
68654;BME280;55636;51.108;13.622;2023-03-22T01:15:53;100032.03;;;11.10;62.22
68654;BME280;55636;51.108;13.622;2023-03-22T01:16:56;100040.59;;;11.08;62.26
68654;BME280;55636;51.108;13.622;2023-03-22T01:17:59;100037.84;;;11.08;62.29
68654;BME280;55636;51.108;13.622;2023-03-22T01:19:02;100037.84;;;11.08;62.13
68654;BME280;55636;51.108;13.622;2023-03-22T01:20:06;100043.63;;;11.07;62.00
68654;BME280;55636;51.108;13.622;2023-03-22T01:21:11;100047.22;;;11.07;62.13
68654;BME280;55636;51.108;13.622;2023-03-22T01:22:14;100051.09;;;11.06;62.13
68654;BME280;55636;51.108;13.622;2023-03-22T01:23:18;100046.69;;;11.05;62.12
68654;BME280;55636;51.108;13.622;2023-03-22T01:24:21;100039.47;;;11.04;62.08
68654;BME280;55636;51.108;13.622;2023-03-22T01:25:23;100040.59;;;11.03;62.09
68654;BME280;55636;51.108;13.622;2023-03-22T01:26:26;100037.00;;;11.02;62.07
68654;BME280;55636;51.108;13.622;2023-03-22T01:27:29;100033.38;;;11.02;62.11
68654;BME280;55636;51.108;13.622;2023-03-22T01:28:31;100032.56;;;11.01;61.93
68654;BME280;55636;51.108;13.622;2023-03-22T01:29:33;100028.13;;;11.00;62.11
68654;BME280;55636;51.108;13.622;2023-03-22T01:30:39;100032.00;;;10.99;62.00
68654;BME280;55636;51.108;13.622;2023-03-22T01:31:44;100030.34;;;10.98;62.03
68654;BME280;55636;51.108;13.622;2023-03-22T01:32:47;100028.69;;;10.97;62.13
68654;BME280;55636;51.108;13.622;2023-03-22T01:33:51;100023.69;;;10.94;62.06
68654;BME280;55636;51.108;13.622;2023-03-22T01:34:57;100028.38;;;10.94;62.27
68654;BME280;55636;51.108;13.622;2023-03-22T01:36:03;100027.56;;;10.93;62.09
68654;BME280;55636;51.108;13.622;2023-03-22T01:37:08;100016.75;;;10.92;62.32
68654;BME280;55636;51.108;13.622;2023-03-22T01:38:14;100017.91;;;10.91;62.12
68654;BME280;55636;51.108;13.622;2023-03-22T01:39:24;100019.25;;;10.88;62.29
68654;BME280;55636;51.108;13.622;2023-03-22T01:40:32;100015.66;;;10.88;62.13
68654;BME280;55636;51.108;13.622;2023-03-22T01:41:35;100015.94;;;10.86;62.14
68654;BME280;55636;51.108;13.622;2023-03-22T01:42:46;100013.44;;;10.84;62.10
68654;BME280;55636;51.108;13.622;2023-03-22T01:44:27;100010.09;;;10.82;62.10
68654;BME280;55636;51.108;13.622;2023-03-22T01:45:36;100015.91;;;10.81;61.97
68654;BME280;55636;51.108;13.622;2023-03-22T01:46:40;100014.50;;;10.78;62.10
68654;BME280;55636;51.108;13.622;2023-03-22T01:47:51;100007.31;;;10.77;62.04
68654;BME280;55636;51.108;13.622;2023-03-22T01:48:56;100013.13;;;10.76;62.01
68654;BME280;55636;51.108;13.622;2023-03-22T01:49:58;100014.50;;;10.73;61.98
68654;BME280;55636;51.108;13.622;2023-03-22T01:51:07;100007.31;;;10.72;62.17
68654;BME280;55636;51.108;13.622;2023-03-22T01:52:18;100010.63;;;10.69;62.10
68654;BME280;55636;51.108;13.622;2023-03-22T01:54:08;100012.81;;;10.67;61.98
68654;BME280;55636;51.108;13.622;2023-03-22T01:55:11;100005.88;;;10.64;61.97
68654;BME280;55636;51.108;13.622;2023-03-22T01:56:22;100007.53;;;10.60;62.07
68654;BME280;55636;51.108;13.622;2023-03-22T01:57:25;100002.28;;;10.59;62.30
68654;BME280;55636;51.108;13.622;2023-03-22T01:58:28;100001.75;;;10.57;62.04
68654;BME280;55636;51.108;13.622;2023-03-22T01:59:35;100009.44;;;10.55;62.23
68654;BME280;55636;51.108;13.622;2023-03-22T02:00:51;100006.13;;;10.52;62.27
68654;BME280;55636;51.108;13.622;2023-03-22T02:02:14;100001.13;;;10.49;62.32
68654;BME280;55636;51.108;13.622;2023-03-22T02:03:34;100007.75;;;10.48;62.35
68654;BME280;55636;51.108;13.622;2023-03-22T02:04:40;99999.16;;;10.45;62.29
68654;BME280;55636;51.108;13.622;2023-03-22T02:05:43;100001.09;;;10.44;62.21
68654;BME280;55636;51.108;13.622;2023-03-22T02:06:47;100000.53;;;10.42;62.44
68654;BME280;55636;51.108;13.622;2023-03-22T02:07:52;100003.56;;;10.41;62.28
68654;BME280;55636;51.108;13.622;2023-03-22T02:08:56;100005.78;;;10.39;62.23
68654;BME280;55636;51.108;13.622;2023-03-22T02:10:00;100005.22;;;10.36;62.37
68654;BME280;55636;51.108;13.622;2023-03-22T02:11:16;100001.63;;;10.36;62.33
68654;BME280;55636;51.108;13.622;2023-03-22T02:12:25;100011.28;;;10.33;62.18
68654;BME280;55636;51.108;13.622;2023-03-22T02:15:23;100017.84;;;10.27;62.36
68654;BME280;55636;51.108;13.622;2023-03-22T02:18:10;100014.78;;;10.24;62.24
68654;BME280;55636;51.108;13.622;2023-03-22T02:24:10;100011.94;;;10.13;62.33
68654;BME280;55636;51.108;13.622;2023-03-22T02:25:40;100009.72;;;10.10;62.05
68654;BME280;55636;51.108;13.622;2023-03-22T02:31:57;100006.03;;;9.94;62.36
68654;BME280;55636;51.108;13.622;2023-03-22T02:33:12;100004.63;;;9.92;62.13
68654;BME280;55636;51.108;13.622;2023-03-22T02:35:54;100008.44;;;9.85;62.32
68654;BME280;55636;51.108;13.622;2023-03-22T02:37:41;100005.66;;;9.80;62.28
68654;BME280;55636;51.108;13.622;2023-03-22T02:39:15;100003.16;;;9.79;62.53
68654;BME280;55636;51.108;13.622;2023-03-22T02:40:30;100002.03;;;9.75;62.35
68654;BME280;55636;51.108;13.622;2023-03-22T02:43:14;100000.03;;;9.70;62.25
68654;BME280;55636;51.108;13.622;2023-03-22T02:44:37;100002.22;;;9.68;62.29
68654;BME280;55636;51.108;13.622;2023-03-22T02:47:22;99997.78;;;9.62;62.32
68654;BME280;55636;51.108;13.622;2023-03-22T02:48:32;99991.69;;;9.60;62.29
68654;BME280;55636;51.108;13.622;2023-03-22T02:49:42;99993.88;;;9.58;62.37
68654;BME280;55636;51.108;13.622;2023-03-22T02:50:55;100002.41;;;9.56;62.23
68654;BME280;55636;51.108;13.622;2023-03-22T02:52:30;99991.09;;;9.52;62.32
68654;BME280;55636;51.108;13.622;2023-03-22T02:54:44;99995.44;;;9.48;62.30
68654;BME280;55636;51.108;13.622;2023-03-22T02:55:56;99989.38;;;9.46;62.17
68654;BME280;55636;51.108;13.622;2023-03-22T02:57:04;99989.63;;;9.45;62.19
68654;BME280;55636;51.108;13.622;2023-03-22T02:58:13;99988.25;;;9.42;62.24
68654;BME280;55636;51.108;13.622;2023-03-22T02:59:20;99992.09;;;9.41;62.07
68654;BME280;55636;51.108;13.622;2023-03-22T03:00:26;99984.09;;;9.40;62.07
68654;BME280;55636;51.108;13.622;2023-03-22T03:01:54;99991.78;;;9.37;61.84
68654;BME280;55636;51.108;13.622;2023-03-22T03:03:04;99984.03;;;9.34;61.84
68654;BME280;55636;51.108;13.622;2023-03-22T03:04:17;99987.88;;;9.33;61.88
68654;BME280;55636;51.108;13.622;2023-03-22T03:05:20;99986.22;;;9.32;61.73
68654;BME280;55636;51.108;13.622;2023-03-22T03:06:31;99993.91;;;9.30;61.97
68654;BME280;55636;51.108;13.622;2023-03-22T03:07:36;99987.81;;;9.28;61.84
68654;BME280;55636;51.108;13.622;2023-03-22T03:08:40;99988.09;;;9.27;61.92
68654;BME280;55636;51.108;13.622;2023-03-22T03:09:44;99991.13;;;9.25;61.73
68654;BME280;55636;51.108;13.622;2023-03-22T03:10:47;99987.78;;;9.23;61.81
68654;BME280;55636;51.108;13.622;2023-03-22T03:11:53;99988.84;;;9.22;61.57
68654;BME280;55636;51.108;13.622;2023-03-22T03:12:57;99986.38;;;9.20;61.41
68654;BME280;55636;51.108;13.622;2023-03-22T03:13:59;99984.69;;;9.19;61.31
68654;BME280;55636;51.108;13.622;2023-03-22T03:15:11;99985.81;;;9.18;61.27
68654;BME280;55636;51.108;13.622;2023-03-22T03:16:19;99983.56;;;9.15;61.32
68654;BME280;55636;51.108;13.622;2023-03-22T03:17:49;99978.59;;;9.12;61.29
68654;BME280;55636;51.108;13.622;2023-03-22T03:18:59;99978.84;;;9.11;61.50
68654;BME280;55636;51.108;13.622;2023-03-22T03:20:39;99978.25;;;9.09;61.36
68654;BME280;55636;51.108;13.622;2023-03-22T03:23:48;99983.47;;;9.05;61.42
68654;BME280;55636;51.108;13.622;2023-03-22T03:25:14;99983.13;;;9.01;61.46
68654;BME280;55636;51.108;13.622;2023-03-22T03:30:53;99981.66;;;8.88;61.67
68654;BME280;55636;51.108;13.622;2023-03-22T03:33:11;99985.16;;;8.84;61.66
68654;BME280;55636;51.108;13.622;2023-03-22T03:34:30;99981.81;;;8.82;61.76
68654;BME280;55636;51.108;13.622;2023-03-22T03:35:45;99981.25;;;8.80;61.79
68654;BME280;55636;51.108;13.622;2023-03-22T03:36:58;99987.84;;;8.79;61.58
68654;BME280;55636;51.108;13.622;2023-03-22T03:38:14;99985.63;;;8.76;61.67
68654;BME280;55636;51.108;13.622;2023-03-22T03:39:20;99991.34;;;8.74;61.61
68654;BME280;55636;51.108;13.622;2023-03-22T03:40:32;99987.22;;;8.71;61.69
68654;BME280;55636;51.108;13.622;2023-03-22T03:41:37;99995.47;;;8.71;61.71
68654;BME280;55636;51.108;13.622;2023-03-22T03:42:46;99990.19;;;8.70;61.82
68654;BME280;55636;51.108;13.622;2023-03-22T03:43:49;99991.53;;;8.67;61.80
68654;BME280;55636;51.108;13.622;2023-03-22T03:44:55;99989.63;;;8.68;61.84
68654;BME280;55636;51.108;13.622;2023-03-22T03:45:59;99992.66;;;8.66;61.89
68654;BME280;55636;51.108;13.622;2023-03-22T03:47:04;99987.63;;;8.63;61.76
68654;BME280;55636;51.108;13.622;2023-03-22T03:48:12;99991.47;;;8.62;61.89
68654;BME280;55636;51.108;13.622;2023-03-22T03:49:20;99992.59;;;8.61;61.94
68654;BME280;55636;51.108;13.622;2023-03-22T03:50:25;99989.25;;;8.59;61.90
68654;BME280;55636;51.108;13.622;2023-03-22T03:51:28;99993.94;;;8.59;61.79
68654;BME280;55636;51.108;13.622;2023-03-22T03:52:31;99995.00;;;8.58;61.98
68654;BME280;55636;51.108;13.622;2023-03-22T03:53:34;99989.78;;;8.56;61.84
68654;BME280;55636;51.108;13.622;2023-03-22T03:54:36;99986.44;;;8.54;61.93
68654;BME280;55636;51.108;13.622;2023-03-22T03:55:42;99995.50;;;8.54;61.97
68654;BME280;55636;51.108;13.622;2023-03-22T03:56:45;99987.50;;;8.53;62.06
68654;BME280;55636;51.108;13.622;2023-03-22T03:57:52;99989.44;;;8.52;62.03
68654;BME280;55636;51.108;13.622;2023-03-22T03:58:54;99990.53;;;8.51;61.87
68654;BME280;55636;51.108;13.622;2023-03-22T03:59:58;99989.72;;;8.51;61.62
68654;BME280;55636;51.108;13.622;2023-03-22T04:01:37;99993.53;;;8.50;61.70
68654;BME280;55636;51.108;13.622;2023-03-22T04:02:49;99987.22;;;8.49;61.66
68654;BME280;55636;51.108;13.622;2023-03-22T04:04:23;99993.81;;;8.48;61.49
68654;BME280;55636;51.108;13.622;2023-03-22T04:05:36;99993.22;;;8.46;61.62
68654;BME280;55636;51.108;13.622;2023-03-22T04:06:38;99993.22;;;8.46;61.65
68654;BME280;55636;51.108;13.622;2023-03-22T04:07:45;99989.91;;;8.44;61.68
68654;BME280;55636;51.108;13.622;2023-03-22T04:08:48;99989.03;;;8.44;61.69
68654;BME280;55636;51.108;13.622;2023-03-22T04:10:01;99995.63;;;8.43;61.74
68654;BME280;55636;51.108;13.622;2023-03-22T04:11:07;99989.56;;;8.41;61.79
68654;BME280;55636;51.108;13.622;2023-03-22T04:12:12;99987.06;;;8.39;61.71
68654;BME280;55636;51.108;13.622;2023-03-22T04:13:19;99990.66;;;8.39;61.90
68654;BME280;55636;51.108;13.622;2023-03-22T04:14:30;99992.59;;;8.39;61.93
68654;BME280;55636;51.108;13.622;2023-03-22T04:15:52;99990.91;;;8.38;61.67
68654;BME280;55636;51.108;13.622;2023-03-22T04:16:55;99994.75;;;8.37;61.58
68654;BME280;55636;51.108;13.622;2023-03-22T04:17:58;99988.41;;;8.36;61.68
68654;BME280;55636;51.108;13.622;2023-03-22T04:19:06;99989.50;;;8.35;61.78
68654;BME280;55636;51.108;13.622;2023-03-22T04:20:09;99985.91;;;8.35;61.67
68654;BME280;55636;51.108;13.622;2023-03-22T04:21:14;99990.59;;;8.34;61.49
68654;BME280;55636;51.108;13.622;2023-03-22T04:22:38;99989.75;;;8.34;61.47
68654;BME280;55636;51.108;13.622;2023-03-22T04:23:41;99990.84;;;8.33;61.42
68654;BME280;55636;51.108;13.622;2023-03-22T04:24:48;99992.50;;;8.34;61.46
68654;BME280;55636;51.108;13.622;2023-03-22T04:25:56;99988.09;;;8.33;61.18
68654;BME280;55636;51.108;13.622;2023-03-22T04:27:20;99980.91;;;8.32;61.22
68654;BME280;55636;51.108;13.622;2023-03-22T04:28:31;99980.31;;;8.30;61.20
68654;BME280;55636;51.108;13.622;2023-03-22T04:29:35;99982.84;;;8.31;61.24
68654;BME280;55636;51.108;13.622;2023-03-22T04:30:57;99979.25;;;8.31;61.31
68654;BME280;55636;51.108;13.622;2023-03-22T04:32:24;99977.56;;;8.30;61.24
68654;BME280;55636;51.108;13.622;2023-03-22T04:33:28;99985.00;;;8.29;61.34
68654;BME280;55636;51.108;13.622;2023-03-22T04:34:51;99984.19;;;8.29;61.18
68654;BME280;55636;51.108;13.622;2023-03-22T04:35:56;99986.09;;;8.28;61.04
68654;BME280;55636;51.108;13.622;2023-03-22T04:37:05;99987.19;;;8.27;61.11
68654;BME280;55636;51.108;13.622;2023-03-22T04:38:12;99994.59;;;8.27;61.17
68654;BME280;55636;51.108;13.622;2023-03-22T04:39:16;99984.69;;;8.26;61.35
68654;BME280;55636;51.108;13.622;2023-03-22T04:40:32;99980.03;;;8.26;61.22
68654;BME280;55636;51.108;13.622;2023-03-22T04:41:49;99990.44;;;8.24;61.24
68654;BME280;55636;51.108;13.622;2023-03-22T04:42:51;99984.94;;;8.24;61.27
68654;BME280;55636;51.108;13.622;2023-03-22T04:44:37;99980.28;;;8.25;61.25
68654;BME280;55636;51.108;13.622;2023-03-22T04:45:39;99980.28;;;8.25;61.25
68654;BME280;55636;51.108;13.622;2023-03-22T04:46:46;99979.44;;;8.24;61.27
68654;BME280;55636;51.108;13.622;2023-03-22T04:47:49;99982.44;;;8.22;61.07
68654;BME280;55636;51.108;13.622;2023-03-22T04:48:54;99980.50;;;8.23;61.11
68654;BME280;55636;51.108;13.622;2023-03-22T04:49:58;99973.59;;;8.20;61.03
68654;BME280;55636;51.108;13.622;2023-03-22T04:51:01;99983.53;;;8.21;61.11
68654;BME280;55636;51.108;13.622;2023-03-22T04:52:12;99978.28;;;8.20;61.09
68654;BME280;55636;51.108;13.622;2023-03-22T04:53:22;99978.53;;;8.18;61.10
68654;BME280;55636;51.108;13.622;2023-03-22T04:54:33;99984.88;;;8.19;61.14
68654;BME280;55636;51.108;13.622;2023-03-22T04:55:37;99980.44;;;8.18;61.17
68654;BME280;55636;51.108;13.622;2023-03-22T04:56:39;99983.19;;;8.18;61.25
68654;BME280;55636;51.108;13.622;2023-03-22T04:57:42;99983.19;;;8.18;61.16
68654;BME280;55636;51.108;13.622;2023-03-22T04:58:45;99985.94;;;8.18;61.25
68654;BME280;55636;51.108;13.622;2023-03-22T04:59:49;99976.03;;;8.17;61.22
68654;BME280;55636;51.108;13.622;2023-03-22T05:00:53;99976.88;;;8.17;61.19
68654;BME280;55636;51.108;13.622;2023-03-22T05:01:57;99982.38;;;8.17;61.08
68654;BME280;55636;51.108;13.622;2023-03-22T05:03:03;99978.81;;;8.17;61.02
68654;BME280;55636;51.108;13.622;2023-03-22T05:04:12;99982.38;;;8.17;60.90
68654;BME280;55636;51.108;13.622;2023-03-22T05:05:17;99979.63;;;8.17;61.01
68654;BME280;55636;51.108;13.622;2023-03-22T05:06:22;99974.94;;;8.18;60.82
68654;BME280;55636;51.108;13.622;2023-03-22T05:07:38;99978.53;;;8.18;60.83
68654;BME280;55636;51.108;13.622;2023-03-22T05:08:42;99980.22;;;8.19;60.71
68654;BME280;55636;51.108;13.622;2023-03-22T05:09:48;99974.44;;;8.21;60.57
68654;BME280;55636;51.108;13.622;2023-03-22T05:10:52;99977.19;;;8.21;60.62
68654;BME280;55636;51.108;13.622;2023-03-22T05:12:00;99976.13;;;8.22;60.64
68654;BME280;55636;51.108;13.622;2023-03-22T05:13:20;99974.19;;;8.22;60.57
68654;BME280;55636;51.108;13.622;2023-03-22T05:14:24;99975.00;;;8.23;60.64
68654;BME280;55636;51.108;13.622;2023-03-22T05:15:30;99970.34;;;8.24;60.68
68654;BME280;55636;51.108;13.622;2023-03-22T05:16:38;99969.28;;;8.25;60.68
68654;BME280;55636;51.108;13.622;2023-03-22T05:17:41;99968.41;;;8.24;60.66
68654;BME280;55636;51.108;13.622;2023-03-22T05:18:44;99968.16;;;8.26;60.73
68654;BME280;55636;51.108;13.622;2023-03-22T05:19:48;99969.84;;;8.27;60.61
68654;BME280;55636;51.108;13.622;2023-03-22T05:20:51;99966.81;;;8.28;60.70
68654;BME280;55636;51.108;13.622;2023-03-22T05:21:57;99968.75;;;8.28;60.57
68654;BME280;55636;51.108;13.622;2023-03-22T05:23:17;99975.06;;;8.28;60.67
68654;BME280;55636;51.108;13.622;2023-03-22T05:24:28;99969.31;;;8.30;60.65
68654;BME280;55636;51.108;13.622;2023-03-22T05:25:31;99976.50;;;8.31;60.66
68654;BME280;55636;51.108;13.622;2023-03-22T05:26:35;99973.47;;;8.32;60.63
68654;BME280;55636;51.108;13.622;2023-03-22T05:27:44;99978.75;;;8.34;60.70
68654;BME280;55636;51.108;13.622;2023-03-22T05:29:09;99973.25;;;8.34;60.81
68654;BME280;55636;51.108;13.622;2023-03-22T05:30:31;99981.25;;;8.35;60.71
68654;BME280;55636;51.108;13.622;2023-03-22T05:31:51;99969.16;;;8.36;60.76
68654;BME280;55636;51.108;13.622;2023-03-22T05:32:57;99969.16;;;8.36;60.81
68654;BME280;55636;51.108;13.622;2023-03-22T05:34:04;99973.53;;;8.37;60.78
68654;BME280;55636;51.108;13.622;2023-03-22T05:35:09;99971.38;;;8.39;60.78
68654;BME280;55636;51.108;13.622;2023-03-22T05:36:18;99973.06;;;8.41;60.83
68654;BME280;55636;51.108;13.622;2023-03-22T05:37:37;99971.97;;;8.42;60.85
68654;BME280;55636;51.108;13.622;2023-03-22T05:38:41;99981.88;;;8.43;60.98
68654;BME280;55636;51.108;13.622;2023-03-22T05:39:48;99974.47;;;8.43;61.00
68654;BME280;55636;51.108;13.622;2023-03-22T05:40:51;99977.78;;;8.45;60.87
68654;BME280;55636;51.108;13.622;2023-03-22T05:41:53;99971.19;;;8.46;60.90
68654;BME280;55636;51.108;13.622;2023-03-22T05:42:55;99980.03;;;8.48;60.97
68654;BME280;55636;51.108;13.622;2023-03-22T05:44:00;99977.03;;;8.50;60.86
68654;BME280;55636;51.108;13.622;2023-03-22T05:45:03;99977.56;;;8.52;60.95
68654;BME280;55636;51.108;13.622;2023-03-22T05:46:07;99974.34;;;8.55;60.75
68654;BME280;55636;51.108;13.622;2023-03-22T05:47:25;99984.00;;;8.58;60.55
68654;BME280;55636;51.108;13.622;2023-03-22T05:48:37;99976.31;;;8.60;60.58
68654;BME280;55636;51.108;13.622;2023-03-22T05:49:43;99974.13;;;8.62;60.47
68654;BME280;55636;51.108;13.622;2023-03-22T05:50:49;99978.28;;;8.64;60.45
68654;BME280;55636;51.108;13.622;2023-03-22T05:51:52;99967.03;;;8.66;60.51
68654;BME280;55636;51.108;13.622;2023-03-22T05:52:57;99969.28;;;8.69;60.28
68654;BME280;55636;51.108;13.622;2023-03-22T05:54:08;99958.81;;;8.71;60.41
68654;BME280;55636;51.108;13.622;2023-03-22T05:55:16;99957.25;;;8.75;60.24
68654;BME280;55636;51.108;13.622;2023-03-22T05:56:20;99961.66;;;8.76;60.36
68654;BME280;55636;51.108;13.622;2023-03-22T05:57:34;99958.16;;;8.81;60.17
68654;BME280;55636;51.108;13.622;2023-03-22T05:58:43;99954.88;;;8.84;59.93
68654;BME280;55636;51.108;13.622;2023-03-22T05:59:51;99962.88;;;8.85;60.08
68654;BME280;55636;51.108;13.622;2023-03-22T06:01:08;99964.84;;;8.90;59.68
68654;BME280;55636;51.108;13.622;2023-03-22T06:02:32;99971.78;;;8.93;59.93
68654;BME280;55636;51.108;13.622;2023-03-22T06:03:37;99974.00;;;8.96;59.70
68654;BME280;55636;51.108;13.622;2023-03-22T06:04:47;99975.13;;;9.00;59.88
68654;BME280;55636;51.108;13.622;2023-03-22T06:05:51;99971.88;;;9.03;59.73
68654;BME280;55636;51.108;13.622;2023-03-22T06:07:06;99965.84;;;9.06;59.62
68654;BME280;55636;51.108;13.622;2023-03-22T06:08:29;99972.50;;;9.10;59.83
68654;BME280;55636;51.108;13.622;2023-03-22T06:09:33;99966.47;;;9.13;59.67
68654;BME280;55636;51.108;13.622;2023-03-22T06:10:39;99969.78;;;9.15;59.59
68654;BME280;55636;51.108;13.622;2023-03-22T06:11:45;99968.44;;;9.18;59.46
68654;BME280;55636;51.108;13.622;2023-03-22T06:12:49;99973.41;;;9.21;59.52
68654;BME280;55636;51.108;13.622;2023-03-22T06:13:59;99964.63;;;9.24;59.65
68654;BME280;55636;51.108;13.622;2023-03-22T06:15:10;99963.28;;;9.27;59.49
68654;BME280;55636;51.108;13.622;2023-03-22T06:16:32;99962.75;;;9.30;59.31
68654;BME280;55636;51.108;13.622;2023-03-22T06:17:35;99960.56;;;9.32;59.20
68654;BME280;55636;51.108;13.622;2023-03-22T06:18:41;99963.88;;;9.34;59.24
68654;BME280;55636;51.108;13.622;2023-03-22T06:19:46;99957.03;;;9.36;59.29
68654;BME280;55636;51.108;13.622;2023-03-22T06:20:54;99962.03;;;9.40;59.29
68654;BME280;55636;51.108;13.622;2023-03-22T06:21:57;99959.00;;;9.41;59.22
68654;BME280;55636;51.108;13.622;2023-03-22T06:23:02;99961.75;;;9.41;59.06
68654;BME280;55636;51.108;13.622;2023-03-22T06:24:05;99966.72;;;9.44;59.04